sensor_id;sensor_type;location;lat;lon;timestamp;P1;durP1;ratioP1;P2;durP2;ratioP2
15629;SDS011;7914;50.842;0.166;2023-11-21T00:00:31;8.82;;;2.53;;
15629;SDS011;7914;50.842;0.166;2023-11-21T00:02:56;7.22;;;2.78;;
15629;SDS011;7914;50.842;0.166;2023-11-21T00:05:22;8.75;;;2.90;;
15629;SDS011;7914;50.842;0.166;2023-11-21T00:07:48;6.60;;;2.67;;
15629;SDS011;7914;50.842;0.166;2023-11-21T00:10:14;8.15;;;3.00;;
15629;SDS011;7914;50.842;0.166;2023-11-21T00:12:41;6.65;;;2.45;;
15629;SDS011;7914;50.842;0.166;2023-11-21T00:15:08;8.63;;;2.45;;
15629;SDS011;7914;50.842;0.166;2023-11-21T00:17:37;6.82;;;3.08;;
15629;SDS011;7914;50.842;0.166;2023-11-21T00:20:04;7.47;;;2.85;;
15629;SDS011;7914;50.842;0.166;2023-11-21T00:22:34;6.65;;;2.45;;
15629;SDS011;7914;50.842;0.166;2023-11-21T00:25:00;10.15;;;3.03;;
15629;SDS011;7914;50.842;0.166;2023-11-21T00:27:28;8.80;;;3.35;;
15629;SDS011;7914;50.842;0.166;2023-11-21T00:29:54;6.82;;;2.63;;
15629;SDS011;7914;50.842;0.166;2023-11-21T00:32:20;7.90;;;2.80;;
15629;SDS011;7914;50.842;0.166;2023-11-21T00:34:45;8.93;;;3.20;;
15629;SDS011;7914;50.842;0.166;2023-11-21T00:37:11;5.68;;;2.20;;
15629;SDS011;7914;50.842;0.166;2023-11-21T00:39:37;6.80;;;3.00;;
15629;SDS011;7914;50.842;0.166;2023-11-21T00:42:02;6.55;;;2.75;;
15629;SDS011;7914;50.842;0.166;2023-11-21T00:44:30;6.93;;;2.55;;
15629;SDS011;7914;50.842;0.166;2023-11-21T00:46:55;9.82;;;2.88;;
15629;SDS011;7914;50.842;0.166;2023-11-21T00:49:21;7.28;;;3.08;;
15629;SDS011;7914;50.842;0.166;2023-11-21T00:51:47;7.60;;;2.90;;
15629;SDS011;7914;50.842;0.166;2023-11-21T00:54:12;11.07;;;3.55;;
15629;SDS011;7914;50.842;0.166;2023-11-21T00:56:38;10.20;;;3.55;;
15629;SDS011;7914;50.842;0.166;2023-11-21T00:59:05;10.43;;;3.53;;
15629;SDS011;7914;50.842;0.166;2023-11-21T01:01:30;10.13;;;3.42;;
15629;SDS011;7914;50.842;0.166;2023-11-21T01:03:56;9.80;;;3.42;;
15629;SDS011;7914;50.842;0.166;2023-11-21T01:06:22;9.88;;;3.53;;
15629;SDS011;7914;50.842;0.166;2023-11-21T01:08:47;8.63;;;3.70;;
15629;SDS011;7914;50.842;0.166;2023-11-21T01:11:13;9.98;;;3.53;;
15629;SDS011;7914;50.842;0.166;2023-11-21T01:13:40;10.20;;;3.35;;
15629;SDS011;7914;50.842;0.166;2023-11-21T01:16:06;8.70;;;3.38;;
15629;SDS011;7914;50.842;0.166;2023-11-21T01:18:33;8.30;;;3.42;;
15629;SDS011;7914;50.842;0.166;2023-11-21T01:21:00;8.20;;;3.20;;
15629;SDS011;7914;50.842;0.166;2023-11-21T01:23:25;8.90;;;3.38;;
15629;SDS011;7914;50.842;0.166;2023-11-21T01:25:52;9.10;;;4.03;;
15629;SDS011;7914;50.842;0.166;2023-11-21T01:28:18;8.85;;;4.05;;
15629;SDS011;7914;50.842;0.166;2023-11-21T01:30:44;7.50;;;3.17;;
15629;SDS011;7914;50.842;0.166;2023-11-21T01:33:11;12.43;;;3.55;;
15629;SDS011;7914;50.842;0.166;2023-11-21T01:35:37;6.90;;;2.78;;
15629;SDS011;7914;50.842;0.166;2023-11-21T01:38:02;7.65;;;3.10;;
15629;SDS011;7914;50.842;0.166;2023-11-21T01:40:29;7.75;;;3.60;;
15629;SDS011;7914;50.842;0.166;2023-11-21T01:42:55;7.22;;;2.67;;
15629;SDS011;7914;50.842;0.166;2023-11-21T01:45:22;10.88;;;3.15;;
15629;SDS011;7914;50.842;0.166;2023-11-21T01:47:50;7.03;;;3.15;;
15629;SDS011;7914;50.842;0.166;2023-11-21T01:50:16;7.72;;;3.10;;
15629;SDS011;7914;50.842;0.166;2023-11-21T01:52:43;8.18;;;3.00;;
15629;SDS011;7914;50.842;0.166;2023-11-21T01:55:10;7.18;;;2.97;;
15629;SDS011;7914;50.842;0.166;2023-11-21T01:57:37;7.53;;;2.80;;
15629;SDS011;7914;50.842;0.166;2023-11-21T02:00:03;9.38;;;3.40;;
15629;SDS011;7914;50.842;0.166;2023-11-21T02:02:41;8.93;;;3.10;;
15629;SDS011;7914;50.842;0.166;2023-11-21T02:07:35;7.57;;;2.97;;
15629;SDS011;7914;50.842;0.166;2023-11-21T02:10:02;7.95;;;3.67;;
15629;SDS011;7914;50.842;0.166;2023-11-21T02:12:29;10.35;;;4.18;;
15629;SDS011;7914;50.842;0.166;2023-11-21T02:14:55;9.73;;;3.15;;
15629;SDS011;7914;50.842;0.166;2023-11-21T02:17:21;8.55;;;3.85;;
15629;SDS011;7914;50.842;0.166;2023-11-21T02:19:46;9.05;;;3.92;;
15629;SDS011;7914;50.842;0.166;2023-11-21T02:22:16;9.18;;;3.90;;
15629;SDS011;7914;50.842;0.166;2023-11-21T02:24:45;10.32;;;3.58;;
15629;SDS011;7914;50.842;0.166;2023-11-21T02:27:12;9.02;;;3.88;;
15629;SDS011;7914;50.842;0.166;2023-11-21T02:29:38;8.10;;;3.42;;
15629;SDS011;7914;50.842;0.166;2023-11-21T02:32:04;9.02;;;4.65;;
15629;SDS011;7914;50.842;0.166;2023-11-21T02:34:30;9.52;;;3.75;;
15629;SDS011;7914;50.842;0.166;2023-11-21T02:36:56;10.48;;;4.32;;
15629;SDS011;7914;50.842;0.166;2023-11-21T02:39:22;8.43;;;3.72;;
15629;SDS011;7914;50.842;0.166;2023-11-21T02:41:49;7.80;;;3.53;;
15629;SDS011;7914;50.842;0.166;2023-11-21T02:44:15;8.32;;;3.70;;
15629;SDS011;7914;50.842;0.166;2023-11-21T02:46:41;8.63;;;3.42;;
15629;SDS011;7914;50.842;0.166;2023-11-21T02:49:06;9.45;;;3.55;;
15629;SDS011;7914;50.842;0.166;2023-11-21T02:51:32;10.07;;;4.28;;
15629;SDS011;7914;50.842;0.166;2023-11-21T02:53:59;8.23;;;3.65;;
15629;SDS011;7914;50.842;0.166;2023-11-21T02:56:28;7.28;;;3.35;;
15629;SDS011;7914;50.842;0.166;2023-11-21T02:58:57;10.75;;;4.22;;
15629;SDS011;7914;50.842;0.166;2023-11-21T03:01:24;9.50;;;3.60;;
15629;SDS011;7914;50.842;0.166;2023-11-21T03:03:50;8.93;;;3.75;;
15629;SDS011;7914;50.842;0.166;2023-11-21T03:06:19;9.48;;;3.75;;
15629;SDS011;7914;50.842;0.166;2023-11-21T03:08:46;8.02;;;3.58;;
15629;SDS011;7914;50.842;0.166;2023-11-21T03:11:12;8.40;;;3.67;;
15629;SDS011;7914;50.842;0.166;2023-11-21T03:13:39;8.45;;;3.65;;
15629;SDS011;7914;50.842;0.166;2023-11-21T03:16:07;10.07;;;4.18;;
15629;SDS011;7914;50.842;0.166;2023-11-21T03:18:36;9.43;;;3.97;;
15629;SDS011;7914;50.842;0.166;2023-11-21T03:21:06;8.38;;;3.58;;
15629;SDS011;7914;50.842;0.166;2023-11-21T03:23:35;7.93;;;3.55;;
15629;SDS011;7914;50.842;0.166;2023-11-21T03:26:02;9.40;;;3.80;;
15629;SDS011;7914;50.842;0.166;2023-11-21T03:28:28;7.78;;;2.78;;
15629;SDS011;7914;50.842;0.166;2023-11-21T03:30:55;7.13;;;3.00;;
15629;SDS011;7914;50.842;0.166;2023-11-21T03:33:21;7.72;;;2.95;;
15629;SDS011;7914;50.842;0.166;2023-11-21T03:35:47;13.00;;;3.25;;
15629;SDS011;7914;50.842;0.166;2023-11-21T03:38:14;7.80;;;3.33;;
15629;SDS011;7914;50.842;0.166;2023-11-21T03:40:41;8.05;;;2.50;;
15629;SDS011;7914;50.842;0.166;2023-11-21T03:43:07;6.57;;;2.47;;
15629;SDS011;7914;50.842;0.166;2023-11-21T03:49:14;8.27;;;1.98;;
15629;SDS011;7914;50.842;0.166;2023-11-21T03:51:40;5.53;;;2.20;;
15629;SDS011;7914;50.842;0.166;2023-11-21T03:54:05;5.20;;;1.65;;
15629;SDS011;7914;50.842;0.166;2023-11-21T03:56:31;6.03;;;2.03;;
15629;SDS011;7914;50.842;0.166;2023-11-21T03:58:57;4.40;;;1.50;;
15629;SDS011;7914;50.842;0.166;2023-11-21T04:01:23;5.00;;;1.70;;
15629;SDS011;7914;50.842;0.166;2023-11-21T04:03:49;4.25;;;1.73;;
15629;SDS011;7914;50.842;0.166;2023-11-21T04:06:15;3.90;;;1.40;;
15629;SDS011;7914;50.842;0.166;2023-11-21T04:08:42;4.80;;;1.60;;
15629;SDS011;7914;50.842;0.166;2023-11-21T04:11:09;3.25;;;1.25;;
15629;SDS011;7914;50.842;0.166;2023-11-21T04:13:39;3.47;;;1.65;;
15629;SDS011;7914;50.842;0.166;2023-11-21T04:16:06;3.58;;;1.40;;
15629;SDS011;7914;50.842;0.166;2023-11-21T04:18:32;5.03;;;1.65;;
15629;SDS011;7914;50.842;0.166;2023-11-21T04:20:59;3.90;;;1.33;;
15629;SDS011;7914;50.842;0.166;2023-11-21T04:23:24;3.42;;;1.10;;
15629;SDS011;7914;50.842;0.166;2023-11-21T04:25:52;3.95;;;1.45;;
15629;SDS011;7914;50.842;0.166;2023-11-21T04:28:19;5.35;;;1.50;;
15629;SDS011;7914;50.842;0.166;2023-11-21T04:30:45;3.20;;;1.30;;
15629;SDS011;7914;50.842;0.166;2023-11-21T04:33:10;3.22;;;1.20;;
15629;SDS011;7914;50.842;0.166;2023-11-21T04:35:36;4.75;;;1.50;;
15629;SDS011;7914;50.842;0.166;2023-11-21T04:38:02;3.50;;;1.15;;
15629;SDS011;7914;50.842;0.166;2023-11-21T04:40:28;4.32;;;1.17;;
15629;SDS011;7914;50.842;0.166;2023-11-21T04:42:53;2.85;;;1.25;;
15629;SDS011;7914;50.842;0.166;2023-11-21T04:45:19;2.67;;;0.95;;
15629;SDS011;7914;50.842;0.166;2023-11-21T04:47:45;3.33;;;1.00;;
15629;SDS011;7914;50.842;0.166;2023-11-21T04:50:13;3.78;;;1.58;;
15629;SDS011;7914;50.842;0.166;2023-11-21T04:55:05;3.70;;;1.30;;
15629;SDS011;7914;50.842;0.166;2023-11-21T04:57:35;4.30;;;1.45;;
15629;SDS011;7914;50.842;0.166;2023-11-21T05:00:01;3.78;;;1.40;;
15629;SDS011;7914;50.842;0.166;2023-11-21T05:02:31;3.88;;;1.20;;
15629;SDS011;7914;50.842;0.166;2023-11-21T05:05:00;4.30;;;1.20;;
15629;SDS011;7914;50.842;0.166;2023-11-21T05:07:26;4.03;;;1.30;;
15629;SDS011;7914;50.842;0.166;2023-11-21T05:09:54;4.00;;;1.38;;
15629;SDS011;7914;50.842;0.166;2023-11-21T05:12:21;2.95;;;1.27;;
15629;SDS011;7914;50.842;0.166;2023-11-21T05:14:50;2.95;;;1.10;;
15629;SDS011;7914;50.842;0.166;2023-11-21T05:17:16;4.20;;;1.08;;
15629;SDS011;7914;50.842;0.166;2023-11-21T05:19:42;3.20;;;1.20;;
15629;SDS011;7914;50.842;0.166;2023-11-21T05:22:10;3.90;;;1.60;;
15629;SDS011;7914;50.842;0.166;2023-11-21T05:24:37;3.15;;;1.17;;
15629;SDS011;7914;50.842;0.166;2023-11-21T05:27:04;3.05;;;1.00;;
15629;SDS011;7914;50.842;0.166;2023-11-21T05:29:30;4.40;;;1.23;;
15629;SDS011;7914;50.842;0.166;2023-11-21T05:31:56;2.78;;;1.17;;
15629;SDS011;7914;50.842;0.166;2023-11-21T05:34:22;3.50;;;1.35;;
15629;SDS011;7914;50.842;0.166;2023-11-21T05:36:50;2.40;;;1.05;;
15629;SDS011;7914;50.842;0.166;2023-11-21T05:39:16;2.95;;;1.10;;
15629;SDS011;7914;50.842;0.166;2023-11-21T05:41:46;3.42;;;1.42;;
15629;SDS011;7914;50.842;0.166;2023-11-21T05:44:11;2.78;;;1.17;;
15629;SDS011;7914;50.842;0.166;2023-11-21T05:46:39;3.53;;;1.25;;
15629;SDS011;7914;50.842;0.166;2023-11-21T05:49:05;3.05;;;1.38;;
15629;SDS011;7914;50.842;0.166;2023-11-21T05:51:34;3.50;;;1.50;;
15629;SDS011;7914;50.842;0.166;2023-11-21T05:53:59;3.05;;;1.30;;
15629;SDS011;7914;50.842;0.166;2023-11-21T05:56:25;2.70;;;1.20;;
15629;SDS011;7914;50.842;0.166;2023-11-21T05:58:51;3.72;;;1.63;;
15629;SDS011;7914;50.842;0.166;2023-11-21T06:01:17;2.72;;;1.17;;
15629;SDS011;7914;50.842;0.166;2023-11-21T06:03:43;2.70;;;1.08;;
15629;SDS011;7914;50.842;0.166;2023-11-21T06:06:08;3.85;;;1.27;;
15629;SDS011;7914;50.842;0.166;2023-11-21T06:08:34;2.28;;;0.95;;
15629;SDS011;7914;50.842;0.166;2023-11-21T06:11:00;2.55;;;0.93;;
15629;SDS011;7914;50.842;0.166;2023-11-21T06:13:25;2.40;;;0.95;;
15629;SDS011;7914;50.842;0.166;2023-11-21T06:15:51;4.20;;;1.20;;
15629;SDS011;7914;50.842;0.166;2023-11-21T06:18:17;2.25;;;0.95;;
15629;SDS011;7914;50.842;0.166;2023-11-21T06:20:45;2.58;;;1.00;;
15629;SDS011;7914;50.842;0.166;2023-11-21T06:23:11;2.88;;;1.00;;
15629;SDS011;7914;50.842;0.166;2023-11-21T06:25:37;2.08;;;0.77;;
15629;SDS011;7914;50.842;0.166;2023-11-21T06:28:03;2.95;;;0.90;;
15629;SDS011;7914;50.842;0.166;2023-11-21T06:30:29;4.00;;;1.10;;
15629;SDS011;7914;50.842;0.166;2023-11-21T06:32:55;1.20;;;0.73;;
15629;SDS011;7914;50.842;0.166;2023-11-21T06:35:21;3.47;;;0.90;;
15629;SDS011;7914;50.842;0.166;2023-11-21T06:37:47;3.30;;;1.30;;
15629;SDS011;7914;50.842;0.166;2023-11-21T06:40:13;2.17;;;0.90;;
15629;SDS011;7914;50.842;0.166;2023-11-21T06:42:43;1.98;;;0.88;;
15629;SDS011;7914;50.842;0.166;2023-11-21T06:45:09;2.60;;;0.70;;
15629;SDS011;7914;50.842;0.166;2023-11-21T06:47:36;2.28;;;0.90;;
15629;SDS011;7914;50.842;0.166;2023-11-21T06:50:03;2.60;;;0.75;;
15629;SDS011;7914;50.842;0.166;2023-11-21T06:52:29;1.95;;;0.60;;
15629;SDS011;7914;50.842;0.166;2023-11-21T06:54:55;3.75;;;0.88;;
15629;SDS011;7914;50.842;0.166;2023-11-21T06:57:22;1.85;;;0.80;;
15629;SDS011;7914;50.842;0.166;2023-11-21T06:59:48;3.15;;;0.77;;
15629;SDS011;7914;50.842;0.166;2023-11-21T07:02:15;1.60;;;0.68;;
15629;SDS011;7914;50.842;0.166;2023-11-21T07:04:44;2.13;;;0.73;;
15629;SDS011;7914;50.842;0.166;2023-11-21T07:07:11;0.98;;;0.40;;
15629;SDS011;7914;50.842;0.166;2023-11-21T07:09:37;2.17;;;0.90;;
15629;SDS011;7914;50.842;0.166;2023-11-21T07:12:03;1.42;;;0.60;;
15629;SDS011;7914;50.842;0.166;2023-11-21T07:14:31;2.67;;;0.85;;
15629;SDS011;7914;50.842;0.166;2023-11-21T07:16:57;2.40;;;0.93;;
15629;SDS011;7914;50.842;0.166;2023-11-21T07:19:23;2.10;;;0.90;;
15629;SDS011;7914;50.842;0.166;2023-11-21T07:21:48;1.80;;;0.75;;
15629;SDS011;7914;50.842;0.166;2023-11-21T07:26:43;2.47;;;0.95;;
15629;SDS011;7914;50.842;0.166;2023-11-21T07:29:08;2.58;;;1.00;;
15629;SDS011;7914;50.842;0.166;2023-11-21T07:31:36;4.28;;;1.10;;
15629;SDS011;7914;50.842;0.166;2023-11-21T07:34:03;2.70;;;0.90;;
15629;SDS011;7914;50.842;0.166;2023-11-21T07:36:29;2.95;;;1.17;;
15629;SDS011;7914;50.842;0.166;2023-11-21T07:38:55;2.50;;;0.98;;
15629;SDS011;7914;50.842;0.166;2023-11-21T07:41:20;4.55;;;1.08;;
15629;SDS011;7914;50.842;0.166;2023-11-21T07:43:47;2.78;;;0.95;;
15629;SDS011;7914;50.842;0.166;2023-11-21T07:46:13;3.13;;;1.30;;
15629;SDS011;7914;50.842;0.166;2023-11-21T07:48:39;3.70;;;1.27;;
15629;SDS011;7914;50.842;0.166;2023-11-21T07:51:07;4.95;;;1.73;;
15629;SDS011;7914;50.842;0.166;2023-11-21T07:53:33;5.22;;;1.30;;
15629;SDS011;7914;50.842;0.166;2023-11-21T07:56:03;4.63;;;1.50;;
15629;SDS011;7914;50.842;0.166;2023-11-21T07:58:33;4.88;;;1.15;;
15629;SDS011;7914;50.842;0.166;2023-11-21T08:01:00;6.55;;;1.25;;
15629;SDS011;7914;50.842;0.166;2023-11-21T08:03:26;5.45;;;2.20;;
15629;SDS011;7914;50.842;0.166;2023-11-21T08:05:54;3.42;;;1.30;;
15629;SDS011;7914;50.842;0.166;2023-11-21T08:08:20;4.20;;;1.27;;
15629;SDS011;7914;50.842;0.166;2023-11-21T08:10:46;3.28;;;1.45;;
15629;SDS011;7914;50.842;0.166;2023-11-21T08:13:24;3.17;;;1.08;;
15629;SDS011;7914;50.842;0.166;2023-11-21T08:15:53;4.55;;;1.58;;
15629;SDS011;7914;50.842;0.166;2023-11-21T08:18:20;5.32;;;1.40;;
15629;SDS011;7914;50.842;0.166;2023-11-21T08:20:45;6.43;;;1.60;;
15629;SDS011;7914;50.842;0.166;2023-11-21T08:23:14;4.10;;;1.25;;
15629;SDS011;7914;50.842;0.166;2023-11-21T08:25:42;5.20;;;1.27;;
15629;SDS011;7914;50.842;0.166;2023-11-21T08:28:12;5.45;;;1.58;;
15629;SDS011;7914;50.842;0.166;2023-11-21T08:30:39;3.97;;;1.30;;
15629;SDS011;7914;50.842;0.166;2023-11-21T08:33:06;3.17;;;1.30;;
15629;SDS011;7914;50.842;0.166;2023-11-21T08:35:33;3.50;;;1.13;;
15629;SDS011;7914;50.842;0.166;2023-11-21T08:37:59;4.50;;;1.10;;
15629;SDS011;7914;50.842;0.166;2023-11-21T08:40:26;3.70;;;1.02;;
15629;SDS011;7914;50.842;0.166;2023-11-21T08:42:52;2.53;;;0.82;;
15629;SDS011;7914;50.842;0.166;2023-11-21T08:45:18;2.15;;;1.08;;
15629;SDS011;7914;50.842;0.166;2023-11-21T08:47:44;2.55;;;1.00;;
15629;SDS011;7914;50.842;0.166;2023-11-21T08:50:10;2.90;;;1.23;;
15629;SDS011;7914;50.842;0.166;2023-11-21T08:54:05;3.95;;;1.02;;
15629;SDS011;7914;50.842;0.166;2023-11-21T08:57:58;3.53;;;0.93;;
15629;SDS011;7914;50.842;0.166;2023-11-21T09:00:24;2.15;;;0.70;;
15629;SDS011;7914;50.842;0.166;2023-11-21T09:03:20;2.70;;;0.93;;
15629;SDS011;7914;50.842;0.166;2023-11-21T09:05:45;2.88;;;1.08;;
15629;SDS011;7914;50.842;0.166;2023-11-21T09:08:11;1.95;;;1.00;;
15629;SDS011;7914;50.842;0.166;2023-11-21T09:10:37;6.57;;;1.10;;
15629;SDS011;7914;50.842;0.166;2023-11-21T09:13:04;3.67;;;1.05;;
15629;SDS011;7914;50.842;0.166;2023-11-21T09:15:30;2.95;;;1.20;;
15629;SDS011;7914;50.842;0.166;2023-11-21T09:17:55;1.85;;;0.75;;
15629;SDS011;7914;50.842;0.166;2023-11-21T09:20:21;4.28;;;0.90;;
15629;SDS011;7914;50.842;0.166;2023-11-21T09:22:48;4.03;;;1.35;;
15629;SDS011;7914;50.842;0.166;2023-11-21T09:25:14;3.10;;;0.90;;
15629;SDS011;7914;50.842;0.166;2023-11-21T09:27:40;3.85;;;1.00;;
15629;SDS011;7914;50.842;0.166;2023-11-21T09:30:06;3.90;;;1.30;;
15629;SDS011;7914;50.842;0.166;2023-11-21T09:32:35;6.80;;;1.25;;
15629;SDS011;7914;50.842;0.166;2023-11-21T09:35:03;2.85;;;1.10;;
15629;SDS011;7914;50.842;0.166;2023-11-21T09:37:30;2.00;;;0.73;;
15629;SDS011;7914;50.842;0.166;2023-11-21T09:39:56;4.60;;;1.80;;
15629;SDS011;7914;50.842;0.166;2023-11-21T09:44:58;1.90;;;0.80;;
15629;SDS011;7914;50.842;0.166;2023-11-21T09:47:30;3.35;;;1.30;;
15629;SDS011;7914;50.842;0.166;2023-11-21T09:50:01;6.03;;;1.77;;
15629;SDS011;7914;50.842;0.166;2023-11-21T09:52:27;5.65;;;1.42;;
15629;SDS011;7914;50.842;0.166;2023-11-21T09:54:54;3.30;;;1.08;;
15629;SDS011;7914;50.842;0.166;2023-11-21T09:57:23;3.78;;;1.23;;
15629;SDS011;7914;50.842;0.166;2023-11-21T09:59:53;4.57;;;1.40;;
15629;SDS011;7914;50.842;0.166;2023-11-21T10:02:25;5.05;;;1.17;;
15629;SDS011;7914;50.842;0.166;2023-11-21T10:04:54;4.03;;;1.27;;
15629;SDS011;7914;50.842;0.166;2023-11-21T10:07:21;3.85;;;1.35;;
15629;SDS011;7914;50.842;0.166;2023-11-21T10:09:48;3.33;;;1.20;;
15629;SDS011;7914;50.842;0.166;2023-11-21T10:12:16;2.83;;;1.10;;
15629;SDS011;7914;50.842;0.166;2023-11-21T10:14:42;4.60;;;1.35;;
15629;SDS011;7914;50.842;0.166;2023-11-21T10:17:12;3.85;;;1.17;;
15629;SDS011;7914;50.842;0.166;2023-11-21T10:19:43;4.97;;;1.30;;
15629;SDS011;7914;50.842;0.166;2023-11-21T10:22:12;2.80;;;1.20;;
15629;SDS011;7914;50.842;0.166;2023-11-21T10:24:40;3.70;;;1.20;;
15629;SDS011;7914;50.842;0.166;2023-11-21T10:27:05;3.72;;;1.33;;
15629;SDS011;7914;50.842;0.166;2023-11-21T10:29:31;3.28;;;1.10;;
15629;SDS011;7914;50.842;0.166;2023-11-21T10:32:01;3.05;;;1.30;;
15629;SDS011;7914;50.842;0.166;2023-11-21T10:34:27;3.42;;;1.10;;
15629;SDS011;7914;50.842;0.166;2023-11-21T10:36:53;4.00;;;1.50;;
15629;SDS011;7914;50.842;0.166;2023-11-21T10:39:21;4.35;;;1.30;;
15629;SDS011;7914;50.842;0.166;2023-11-21T10:41:48;1.67;;;0.73;;
15629;SDS011;7914;50.842;0.166;2023-11-21T10:44:19;3.78;;;1.50;;
15629;SDS011;7914;50.842;0.166;2023-11-21T10:46:52;4.78;;;1.33;;
15629;SDS011;7914;50.842;0.166;2023-11-21T10:49:22;4.30;;;1.45;;
15629;SDS011;7914;50.842;0.166;2023-11-21T10:51:50;3.20;;;1.23;;
15629;SDS011;7914;50.842;0.166;2023-11-21T10:54:21;4.20;;;1.20;;
15629;SDS011;7914;50.842;0.166;2023-11-21T10:56:48;2.92;;;1.10;;
15629;SDS011;7914;50.842;0.166;2023-11-21T11:01:42;1.60;;;0.77;;
15629;SDS011;7914;50.842;0.166;2023-11-21T11:04:11;2.45;;;1.00;;
15629;SDS011;7914;50.842;0.166;2023-11-21T11:06:45;3.25;;;0.90;;
15629;SDS011;7914;50.842;0.166;2023-11-21T11:09:18;3.17;;;1.40;;
15629;SDS011;7914;50.842;0.166;2023-11-21T11:11:44;3.85;;;1.30;;
15629;SDS011;7914;50.842;0.166;2023-11-21T11:14:11;3.85;;;1.42;;
15629;SDS011;7914;50.842;0.166;2023-11-21T11:16:38;2.53;;;1.20;;
15629;SDS011;7914;50.842;0.166;2023-11-21T11:19:06;3.55;;;1.13;;
15629;SDS011;7914;50.842;0.166;2023-11-21T11:24:12;2.53;;;0.95;;
15629;SDS011;7914;50.842;0.166;2023-11-21T11:26:56;3.83;;;1.10;;
15629;SDS011;7914;50.842;0.166;2023-11-21T11:38:38;4.22;;;1.27;;
15629;SDS011;7914;50.842;0.166;2023-11-21T11:41:04;3.03;;;1.25;;
15629;SDS011;7914;50.842;0.166;2023-11-21T11:43:32;4.20;;;0.95;;
15629;SDS011;7914;50.842;0.166;2023-11-21T11:45:58;1.98;;;0.95;;
15629;SDS011;7914;50.842;0.166;2023-11-21T11:48:25;3.28;;;1.27;;
15629;SDS011;7914;50.842;0.166;2023-11-21T11:53:39;2.85;;;1.08;;
15629;SDS011;7914;50.842;0.166;2023-11-21T11:56:28;1.67;;;1.10;;
15629;SDS011;7914;50.842;0.166;2023-11-21T11:59:03;2.90;;;0.95;;
15629;SDS011;7914;50.842;0.166;2023-11-21T12:01:32;3.67;;;1.10;;
15629;SDS011;7914;50.842;0.166;2023-11-21T12:06:40;2.53;;;1.00;;
15629;SDS011;7914;50.842;0.166;2023-11-21T12:09:07;4.22;;;1.50;;
15629;SDS011;7914;50.842;0.166;2023-11-21T12:11:40;3.30;;;1.30;;
15629;SDS011;7914;50.842;0.166;2023-11-21T12:14:09;2.17;;;0.90;;
15629;SDS011;7914;50.842;0.166;2023-11-21T12:16:35;2.83;;;1.13;;
15629;SDS011;7914;50.842;0.166;2023-11-21T12:19:00;2.75;;;1.20;;
15629;SDS011;7914;50.842;0.166;2023-11-21T12:21:26;3.75;;;1.25;;
15629;SDS011;7914;50.842;0.166;2023-11-21T12:23:53;3.67;;;1.33;;
15629;SDS011;7914;50.842;0.166;2023-11-21T12:26:19;3.53;;;1.42;;
15629;SDS011;7914;50.842;0.166;2023-11-21T12:28:51;5.50;;;2.20;;
15629;SDS011;7914;50.842;0.166;2023-11-21T12:31:20;6.25;;;2.13;;
15629;SDS011;7914;50.842;0.166;2023-11-21T12:33:50;6.85;;;2.35;;
15629;SDS011;7914;50.842;0.166;2023-11-21T12:36:16;3.95;;;1.75;;
15629;SDS011;7914;50.842;0.166;2023-11-21T12:38:42;4.63;;;2.00;;
15629;SDS011;7914;50.842;0.166;2023-11-21T12:41:09;4.15;;;1.48;;
15629;SDS011;7914;50.842;0.166;2023-11-21T12:43:35;4.85;;;1.83;;
15629;SDS011;7914;50.842;0.166;2023-11-21T12:46:10;2.58;;;1.23;;
15629;SDS011;7914;50.842;0.166;2023-11-21T12:48:45;2.25;;;1.10;;
15629;SDS011;7914;50.842;0.166;2023-11-21T12:51:12;3.60;;;1.25;;
15629;SDS011;7914;50.842;0.166;2023-11-21T12:53:39;3.67;;;1.25;;
15629;SDS011;7914;50.842;0.166;2023-11-21T12:56:06;3.53;;;1.50;;
15629;SDS011;7914;50.842;0.166;2023-11-21T12:58:34;4.50;;;1.58;;
15629;SDS011;7914;50.842;0.166;2023-11-21T13:01:01;3.40;;;1.38;;
15629;SDS011;7914;50.842;0.166;2023-11-21T13:03:30;4.28;;;1.30;;
15629;SDS011;7914;50.842;0.166;2023-11-21T13:05:57;3.67;;;1.25;;
15629;SDS011;7914;50.842;0.166;2023-11-21T13:08:24;2.88;;;1.17;;
15629;SDS011;7914;50.842;0.166;2023-11-21T13:10:52;4.57;;;1.35;;
15629;SDS011;7914;50.842;0.166;2023-11-21T13:13:20;3.72;;;1.73;;
15629;SDS011;7914;50.842;0.166;2023-11-21T13:16:01;2.58;;;1.00;;
15629;SDS011;7914;50.842;0.166;2023-11-21T13:18:30;3.75;;;1.38;;
15629;SDS011;7914;50.842;0.166;2023-11-21T13:20:58;3.90;;;1.63;;
15629;SDS011;7914;50.842;0.166;2023-11-21T13:23:25;4.95;;;1.35;;
15629;SDS011;7914;50.842;0.166;2023-11-21T13:25:52;4.10;;;1.42;;
15629;SDS011;7914;50.842;0.166;2023-11-21T13:28:18;4.28;;;1.40;;
15629;SDS011;7914;50.842;0.166;2023-11-21T13:30:46;4.45;;;1.77;;
15629;SDS011;7914;50.842;0.166;2023-11-21T13:33:13;5.13;;;1.70;;
15629;SDS011;7914;50.842;0.166;2023-11-21T13:35:46;2.72;;;1.25;;
15629;SDS011;7914;50.842;0.166;2023-11-21T13:40:48;3.83;;;1.58;;
15629;SDS011;7914;50.842;0.166;2023-11-21T13:43:18;4.53;;;1.50;;
15629;SDS011;7914;50.842;0.166;2023-11-21T13:45:46;2.67;;;1.33;;
15629;SDS011;7914;50.842;0.166;2023-11-21T13:48:12;4.40;;;1.80;;
15629;SDS011;7914;50.842;0.166;2023-11-21T13:50:50;3.50;;;1.50;;
15629;SDS011;7914;50.842;0.166;2023-11-21T13:53:24;3.90;;;1.55;;
15629;SDS011;7914;50.842;0.166;2023-11-21T13:55:50;3.28;;;1.58;;
15629;SDS011;7914;50.842;0.166;2023-11-21T13:58:19;3.88;;;1.42;;
15629;SDS011;7914;50.842;0.166;2023-11-21T14:00:51;2.70;;;1.08;;
15629;SDS011;7914;50.842;0.166;2023-11-21T14:03:23;3.80;;;1.60;;
15629;SDS011;7914;50.842;0.166;2023-11-21T14:05:50;4.47;;;1.50;;
15629;SDS011;7914;50.842;0.166;2023-11-21T14:08:19;4.07;;;1.38;;
15629;SDS011;7914;50.842;0.166;2023-11-21T14:10:49;4.22;;;1.60;;
15629;SDS011;7914;50.842;0.166;2023-11-21T14:13:20;4.88;;;1.80;;
15629;SDS011;7914;50.842;0.166;2023-11-21T14:16:00;3.47;;;1.42;;
15629;SDS011;7914;50.842;0.166;2023-11-21T14:18:27;3.95;;;1.10;;
15629;SDS011;7914;50.842;0.166;2023-11-21T14:21:03;3.58;;;1.58;;
15629;SDS011;7914;50.842;0.166;2023-11-21T14:23:33;4.20;;;1.60;;
15629;SDS011;7914;50.842;0.166;2023-11-21T14:26:01;4.47;;;1.60;;
15629;SDS011;7914;50.842;0.166;2023-11-21T14:28:26;3.80;;;1.23;;
15629;SDS011;7914;50.842;0.166;2023-11-21T14:30:52;3.83;;;1.70;;
15629;SDS011;7914;50.842;0.166;2023-11-21T14:33:18;3.35;;;1.58;;
15629;SDS011;7914;50.842;0.166;2023-11-21T14:35:44;3.25;;;1.38;;
15629;SDS011;7914;50.842;0.166;2023-11-21T14:38:09;4.30;;;1.50;;
15629;SDS011;7914;50.842;0.166;2023-11-21T14:40:35;3.45;;;1.15;;
15629;SDS011;7914;50.842;0.166;2023-11-21T14:43:02;2.40;;;1.02;;
15629;SDS011;7914;50.842;0.166;2023-11-21T14:45:31;3.45;;;1.38;;
15629;SDS011;7914;50.842;0.166;2023-11-21T14:47:57;4.10;;;1.48;;
15629;SDS011;7914;50.842;0.166;2023-11-21T14:50:29;2.33;;;1.15;;
15629;SDS011;7914;50.842;0.166;2023-11-21T14:53:08;3.75;;;1.58;;
15629;SDS011;7914;50.842;0.166;2023-11-21T14:55:36;5.70;;;2.30;;
15629;SDS011;7914;50.842;0.166;2023-11-21T14:58:17;3.78;;;1.23;;
15629;SDS011;7914;50.842;0.166;2023-11-21T15:00:55;3.78;;;1.52;;
15629;SDS011;7914;50.842;0.166;2023-11-21T15:03:23;3.22;;;1.02;;
15629;SDS011;7914;50.842;0.166;2023-11-21T15:05:55;2.35;;;1.15;;
15629;SDS011;7914;50.842;0.166;2023-11-21T15:08:22;5.40;;;2.10;;
15629;SDS011;7914;50.842;0.166;2023-11-21T15:10:57;4.43;;;1.40;;
15629;SDS011;7914;50.842;0.166;2023-11-21T15:13:23;3.03;;;1.10;;
15629;SDS011;7914;50.842;0.166;2023-11-21T15:15:52;3.15;;;1.10;;
15629;SDS011;7914;50.842;0.166;2023-11-21T15:18:19;3.42;;;1.02;;
15629;SDS011;7914;50.842;0.166;2023-11-21T15:20:45;4.40;;;1.77;;
15629;SDS011;7914;50.842;0.166;2023-11-21T15:23:11;3.35;;;1.50;;
15629;SDS011;7914;50.842;0.166;2023-11-21T15:25:42;4.57;;;2.30;;
15629;SDS011;7914;50.842;0.166;2023-11-21T15:28:07;4.70;;;1.60;;
15629;SDS011;7914;50.842;0.166;2023-11-21T15:30:33;4.93;;;1.80;;
15629;SDS011;7914;50.842;0.166;2023-11-21T15:33:00;6.00;;;2.10;;
15629;SDS011;7914;50.842;0.166;2023-11-21T15:35:28;7.22;;;4.20;;
15629;SDS011;7914;50.842;0.166;2023-11-21T15:37:54;10.05;;;5.18;;
15629;SDS011;7914;50.842;0.166;2023-11-21T15:40:24;5.40;;;2.67;;